KCSV/CSV METAR and TAF weather

Enter ICAO airport designator
Station Type Date Time Source
KCSV METAR 2019/02/23 16:53 UTC NOAA

KCSV 231653Z AUTO 16006KT 2 1/2SM VCTS RA BR FEW040 BKN049 OVC080 11/10 A3009 RMK AO2 LTG DSNT S AND SW SLP186 P0026 T01110100


Station Type Date Time Source
KCSV Decoded METAR 2019/02/23 16:53 UTC NOAA

CROSSVILLE MEMORIAL AIRPORT , TN, United States (KCSV) 35-57N 85-05W 570M
Feb 23, 2019 - 11:53 AM EST / 2019.02.23 1653 UTC
Wind: from the SSE (160 degrees) at 7 MPH (6 KT):0
Visibility: 2 1/2 mile(s):0
Sky conditions: overcast
Weather: thunder in the vicinity; rain; mist; Lightning observed
Precipitation last hour: 0.26 inches
Temperature: 52.0 F (11.1 C)
Dew Point: 50.0 F (10.0 C)
Relative Humidity: 92%
Pressure (altimeter): 30.09 in. Hg (1018 hPa)
ob: KCSV 231653Z AUTO 16006KT 2 1/2SM VCTS RA BR FEW040 BKN049 OVC080 11/10 A3009 RMK AO2 LTG DSNT S AND SW SLP186 P0026 T01110100
cycle: 17

Station Type Date Time Source
KCSV TAF 2019/02/23 17:58 UTC NOAA

TAF
AMD KCSV 231656Z 2317/2412 15007G19KT 2SM SHRA VCTS SCT035 BKN045CB OVC070
FM231800 17011G17KT 4SM -RA BR VCTS BKN020CB
TEMPO 2323/2403 VRB15G25KT 1SM TSRA BKN010CB
FM240300 18014G22KT 4SM -RA BR VCTS BKN025CB
FM240700 20015G22KT 6SM BR VCSH OVC030


Example: see airport list